Time;durP1;ratioP1;P1;durP2;ratioP2;P2;SDS_P1;SDS_P2;PMS_P1;PMS_P2;Temp;Humidity;BMP_temperature;BMP_pressure;BME280_temperature;BME280_humidity;BME280_pressure;Samples;Min_cycle;Max_cycle;Signal;HPM_P1;HPM_P2
2022/09/23 00:01:09;;;;;;;14.15;6.13;;;;;;;10.95;100.00;101454.25;5049228;28;20052;-75
2022/09/23 00:03:40;;;;;;;16.48;6.85;;;;;;;10.91;100.00;101449.88;5047917;28;20532;-75
2022/09/23 00:06:09;;;;;;;13.07;5.97;;;;;;;10.95;100.00;101445.16;5046173;28;20048;-75
2022/09/23 00:08:37;;;;;;;18.42;7.05;;;;;;;10.94;100.00;101449.91;5049250;28;20056;-74
2022/09/23 00:11:31;;;;;;;15.73;6.78;;;;;;;10.92;100.00;101443.94;5047860;28;20786;-72
2022/09/23 00:13:59;;;;;;;14.63;6.47;;;;;;;10.85;100.00;101434.78;5046750;28;20052;-75
2022/09/23 00:16:33;;;;;;;13.88;6.53;;;;;;;10.85;100.00;101432.81;5044474;28;20071;-76
2022/09/23 00:19:01;;;;;;;13.65;6.40;;;;;;;10.91;100.00;101445.13;5046391;28;20048;-75
2022/09/23 00:21:28;;;;;;;15.63;6.30;;;;;;;10.82;100.00;101435.53;5050293;28;20052;-75
2022/09/23 00:23:54;;;;;;;15.73;7.22;;;;;;;10.83;100.00;101445.44;5050654;28;20060;-75
2022/09/23 00:26:22;;;;;;;13.88;6.97;;;;;;;10.84;100.00;101438.72;5051298;28;20559;-75
2022/09/23 00:28:49;;;;;;;13.45;6.43;;;;;;;10.84;100.00;101441.50;5047744;28;20048;-76
2022/09/23 00:31:19;;;;;;;19.95;6.80;;;;;;;10.82;100.00;101436.34;5047631;28;20062;-75
2022/09/23 00:33:46;;;;;;;15.55;6.13;;;;;;;10.79;100.00;101427.97;5048039;28;20055;-75
2022/09/23 00:36:15;;;;;;;14.95;6.68;;;;;;;10.84;100.00;101442.31;5049060;28;20048;-75
2022/09/23 00:38:44;;;;;;;13.05;6.20;;;;;;;10.77;100.00;101428.41;5047006;28;20158;-75
2022/09/23 00:41:14;;;;;;;14.63;6.15;;;;;;;10.79;100.00;101427.97;5047219;28;20076;-75
2022/09/23 00:43:53;;;;;;;17.38;6.60;;;;;;;10.80;100.00;101435.91;5048209;28;20044;-75
2022/09/23 00:46:33;;;;;;;15.10;5.95;;;;;;;10.80;100.00;101433.16;5047899;28;20049;-76
2022/09/23 00:49:18;;;;;;;15.35;6.07;;;;;;;10.74;100.00;101428.34;5047838;28;20741;-75
2022/09/23 00:51:53;;;;;;;11.03;5.93;;;;;;;10.79;100.00;101431.56;5038403;28;21479;-75
2022/09/23 00:54:22;;;;;;;13.95;6.43;;;;;;;10.79;100.00;101431.56;5042176;28;20067;-75
2022/09/23 00:56:49;;;;;;;15.38;6.78;;;;;;;10.69;100.00;101410.13;5047500;28;20045;-75
2022/09/23 00:59:16;;;;;;;17.42;6.18;;;;;;;10.73;100.00;101424.78;5048472;28;20172;-75
2022/09/23 01:01:43;;;;;;;16.05;6.53;;;;;;;10.76;100.00;101423.25;5047227;28;20057;-75
2022/09/23 01:04:09;;;;;;;14.32;6.72;;;;;;;10.75;100.00;101421.63;5049054;28;20055;-76
2022/09/23 01:06:36;;;;;;;13.43;5.97;;;;;;;10.72;100.00;101425.16;5046656;28;20734;-75
2022/09/23 01:09:03;;;;;;;13.38;6.45;;;;;;;10.65;100.00;101416.78;5048036;28;20061;-75
2022/09/23 01:11:45;;;;;;;17.27;6.93;;;;;;;10.65;100.00;101425.91;5049156;28;20057;-76
2022/09/23 01:14:30;;;;;;;16.55;6.40;;;;;;;10.64;100.00;101417.97;5046194;28;20055;-75
2022/09/23 01:16:57;;;;;;;15.02;6.80;;;;;;;10.66;100.00;101415.63;5048027;28;20048;-75
2022/09/23 01:19:45;;;;;;;20.98;9.43;;;;;;;10.64;100.00;101412.44;5050262;28;20250;-75
2022/09/23 01:22:30;;;;;;;13.55;6.65;;;;;;;10.62;100.00;101415.59;5063140;28;20639;-74
2022/09/23 01:25:15;;;;;;;16.00;6.40;;;;;;;10.62;100.00;101409.25;5069368;28;20059;-75
2022/09/23 01:28:22;;;;;;;13.23;5.97;;;;;;;10.60;100.00;101406.88;5066103;28;20461;-74
2022/09/23 01:31:04;;;;;;;15.93;6.90;;;;;;;10.58;100.00;101403.69;5055024;28;20048;-75
2022/09/23 01:33:55;;;;;;;15.57;5.90;;;;;;;10.56;100.00;101400.50;5063535;28;20444;-74
2022/09/23 01:36:26;;;;;;;13.63;6.20;;;;;;;10.57;100.00;101405.66;5054445;28;20044;-74
2022/09/23 01:39:08;;;;;;;15.93;6.38;;;;;;;10.53;100.00;101402.06;5059990;28;20049;-74
2022/09/23 01:41:59;;;;;;;16.30;6.70;;;;;;;10.51;100.00;101403.63;5056637;28;20103;-72
2022/09/23 01:44:50;;;;;;;13.77;6.20;;;;;;;10.47;100.00;101394.50;5060223;28;20076;-75
2022/09/23 01:47:24;;;;;;;15.48;6.47;;;;;;;10.41;100.00;101382.97;5051912;28;20048;-75
2022/09/23 01:49:56;;;;;;;15.77;6.75;;;;;;;10.44;100.00;101386.94;5060325;28;20051;-73
2022/09/23 01:52:46;;;;;;;12.77;6.07;;;;;;;10.43;100.00;101385.38;5065167;28;20052;-74
2022/09/23 01:55:16;;;;;;;14.38;6.35;;;;;;;10.45;100.00;101388.53;5065026;28;20053;-74
2022/09/23 01:57:48;;;;;;;14.27;6.25;;;;;;;10.46;100.00;101390.91;5061197;28;20052;-75
2022/09/23 02:00:17;;;;;;;14.95;6.47;;;;;;;10.43;100.00;101394.44;5065015;28;20059;-75
2022/09/23 02:03:00;;;;;;;13.57;6.03;;;;;;;10.42;100.00;101387.31;5055915;28;20041;-74
2022/09/23 02:05:32;;;;;;;13.20;6.38;;;;;;;10.41;100.00;101387.72;5060751;28;20154;-73
2022/09/23 02:08:16;;;;;;;15.13;6.35;;;;;;;10.38;100.00;101389.28;5059147;28;20421;-73
2022/09/23 02:11:06;;;;;;;12.10;6.45;;;;;;;10.30;100.00;101375.75;5061495;28;20060;-73
2022/09/23 02:13:42;;;;;;;17.65;6.22;;;;;;;10.33;100.00;101380.53;5053235;28;20056;-74
2022/09/23 02:16:21;;;;;;;14.45;5.55;;;;;;;10.30;100.00;101379.28;5057869;28;20053;-75
2022/09/23 02:18:57;;;;;;;13.23;5.53;;;;;;;10.30;100.00;101370.22;5062260;28;20055;-73
2022/09/23 02:21:32;;;;;;;14.43;6.45;;;;;;;10.26;100.00;101372.16;5050417;28;20610;-75
2022/09/23 02:24:12;;;;;;;12.25;5.70;;;;;;;10.24;100.00;101371.72;5063033;28;20056;-74
2022/09/23 02:27:19;;;;;;;16.95;6.30;;;;;;;10.21;100.00;101367.75;5066503;28;20460;-74
2022/09/23 02:29:47;;;;;;;;;;;;;;;10.22;100.00;101374.88;5036178;28;20049;-74
2022/09/23 02:32:22;;;;;;;16.90;6.28;;;;;;;10.21;100.00;101367.75;5056694;28;19920;-73
2022/09/23 02:34:56;;;;;;;15.52;6.10;;;;;;;10.19;100.00;101358.22;5056879;28;20052;-75
2022/09/23 02:37:37;;;;;;;12.88;5.88;;;;;;;10.21;100.00;101356.69;5064139;28;20079;-74
2022/09/23 02:40:26;;;;;;;16.45;6.07;;;;;;;10.16;100.00;101364.53;5063741;28;20102;-74
2022/09/23 02:42:59;;;;;;;17.48;5.97;;;;;;;10.12;100.00;101352.63;5053655;28;20053;-74
2022/09/23 02:45:25;;;;;;;17.13;6.25;;;;;;;10.11;100.00;101354.59;5064123;28;20052;-73
2022/09/23 02:48:01;;;;;;;14.15;5.65;;;;;;;10.07;100.00;101353.78;5053946;28;20083;-75
2022/09/23 02:50:29;;;;;;;11.70;5.65;;;;;;;10.09;100.00;101350.59;5062216;28;20063;-74
2022/09/23 02:52:57;;;;;;;14.90;6.13;;;;;;;10.07;100.00;101345.47;5066349;28;20071;-73
2022/09/23 02:55:25;;;;;;;13.10;6.18;;;;;;;10.09;100.00;101348.66;5055008;28;20052;-75
2022/09/23 02:57:52;;;;;;;15.88;6.57;;;;;;;10.07;100.00;101339.94;5055695;28;20053;-73
2022/09/23 03:00:19;;;;;;;14.65;6.07;;;;;;;10.08;100.00;101346.25;5063619;28;20413;-74
2022/09/23 03:02:54;;;;;;;13.77;6.28;;;;;;;10.07;100.00;101345.47;5062501;28;20045;-74
2022/09/23 03:05:26;;;;;;;13.07;6.30;;;;;;;10.07;100.00;101333.63;5060546;28;20052;-75
2022/09/23 03:08:18;;;;;;;13.25;5.85;;;;;;;10.08;100.00;101333.25;5060634;28;20048;-75
2022/09/23 03:11:09;;;;;;;17.30;6.30;;;;;;;10.05;100.00;101330.38;5061767;28;20052;-74
2022/09/23 03:13:54;;;;;;;16.85;6.25;;;;;;;10.02;100.00;101326.41;5056565;28;20048;-75
2022/09/23 03:16:30;;;;;;;14.88;6.60;;;;;;;9.98;100.00;101317.31;5055854;28;20072;-75
2022/09/23 03:19:06;;;;;;;15.15;6.22;;;;;;;10.00;100.00;101323.22;5058305;28;20056;-73
2022/09/23 03:21:52;;;;;;;15.95;5.95;;;;;;;10.07;100.00;101333.63;5056600;28;20067;-73
2022/09/23 03:24:22;;;;;;;12.50;5.80;;;;;;;10.02;100.00;101329.19;5063059;28;20098;-73
2022/09/23 03:26:50;;;;;;;13.95;5.90;;;;;;;9.99;100.00;101329.94;5063505;28;20087;-73
2022/09/23 03:29:19;;;;;;;13.20;5.85;;;;;;;10.01;100.00;101330.38;5061551;28;20098;-74
2022/09/23 03:31:47;;;;;;;17.50;6.18;;;;;;;9.99;100.00;101326.41;5057131;28;20080;-74
2022/09/23 03:34:26;;;;;;;18.33;7.18;;;;;;;9.98;100.00;101330.31;5064644;28;20056;-72
2022/09/23 03:37:32;;;;;;;17.70;7.07;;;;;;;9.98;100.00;101331.13;5051112;28;20045;-74
2022/09/23 03:40:11;;;;;;;12.88;5.70;;;;;;;9.97;100.00;101318.47;4983734;28;20179;-73
2022/09/23 03:42:38;;;;;;;17.50;8.55;;;;;;;9.91;100.00;101314.47;4969737;28;20078;-72
2022/09/23 03:45:12;;;;;;;15.50;6.82;;;;;;;9.93;100.00;101319.63;4977885;28;20055;-73
2022/09/23 03:47:38;;;;;;;11.90;5.70;;;;;;;9.93;100.00;101317.63;4974998;28;20061;-72
2022/09/23 03:50:05;;;;;;;12.43;5.75;;;;;;;9.91;100.00;101320.00;4984961;28;20051;-73
2022/09/23 03:52:32;;;;;;;13.00;5.68;;;;;;;9.87;100.00;101313.63;4986462;28;20061;-74
2022/09/23 03:54:58;;;;;;;13.57;6.22;;;;;;;9.84;100.00;101311.63;4982218;28;20046;-73
2022/09/23 03:57:25;;;;;;;15.50;5.53;;;;;;;9.81;100.00;101312.38;4973567;28;20050;-72
2022/09/23 03:59:52;;;;;;;13.63;5.95;;;;;;;9.77;100.00;101303.25;4979076;28;20055;-71
2022/09/23 04:02:19;;;;;;;16.10;6.32;;;;;;;9.74;100.00;101309.53;4981581;28;20277;-73
2022/09/23 04:04:46;;;;;;;15.25;6.10;;;;;;;9.70;100.00;101296.84;4984964;28;20913;-74
2022/09/23 04:07:13;;;;;;;14.30;5.78;;;;;;;9.72;100.00;101303.56;4974680;28;20053;-73
2022/09/23 04:09:40;;;;;;;15.07;6.13;;;;;;;9.70;100.00;101308.69;4989842;28;20054;-74
2022/09/23 04:12:10;;;;;;;15.50;6.38;;;;;;;9.63;100.00;101299.53;5060679;28;20049;-74
2022/09/23 04:14:37;;;;;;;13.05;5.75;;;;;;;9.68;100.00;101299.97;5060638;28;20118;-74
2022/09/23 04:17:03;;;;;;;18.20;7.63;;;;;;;9.66;100.00;101302.31;5066550;28;20052;-74
2022/09/23 04:19:30;;;;;;;13.73;6.65;;;;;;;9.70;100.00;101305.13;5057615;28;20052;-73
2022/09/23 04:21:56;;;;;;;14.02;6.00;;;;;;;9.61;100.00;101293.56;5056826;28;20422;-73
2022/09/23 04:24:23;;;;;;;16.02;6.25;;;;;;;9.63;100.00;101292.03;5065088;28;20110;-73
2022/09/23 04:26:54;;;;;;;13.38;6.13;;;;;;;9.62;100.00;101295.19;5069502;28;20052;-74
2022/09/23 04:29:21;;;;;;;15.52;5.80;;;;;;;9.57;100.00;101281.69;5070366;28;20053;-74
2022/09/23 04:31:48;;;;;;;11.38;5.75;;;;;;;9.61;100.00;101288.84;5059581;28;20107;-74
2022/09/23 04:34:16;;;;;;;13.85;6.05;;;;;;;9.61;100.00;101283.31;5063572;28;20098;-73
2022/09/23 04:36:44;;;;;;;14.27;5.68;;;;;;;9.60;100.00;101281.75;5068956;28;20045;-74
2022/09/23 04:39:11;;;;;;;12.85;6.13;;;;;;;9.58;100.00;101280.50;5062012;28;20057;-73
2022/09/23 04:41:38;;;;;;;12.25;5.63;;;;;;;9.56;100.00;101283.66;5068725;28;20055;-73
2022/09/23 04:44:04;;;;;;;13.73;6.22;;;;;;;9.55;100.00;101278.50;5052982;28;20041;-74
2022/09/23 04:46:31;;;;;;;12.90;5.53;;;;;;;9.51;100.00;101270.16;5065852;28;20056;-74
2022/09/23 04:48:58;;;;;;;12.75;5.45;;;;;;;9.49;100.00;101269.75;5067092;28;20457;-73
2022/09/23 04:51:25;;;;;;;14.50;5.32;;;;;;;9.48;100.00;101268.16;5063263;28;20049;-72
2022/09/23 04:53:54;;;;;;;13.63;6.45;;;;;;;9.44;100.00;101266.53;5063353;28;20051;-74
2022/09/23 04:56:25;;;;;;;12.27;6.13;;;;;;;9.33;100.00;101255.34;5062318;28;20053;-72
2022/09/23 04:58:52;;;;;;;11.60;5.60;;;;;;;9.37;100.00;101267.25;5058882;28;20075;-71
2022/09/23 05:01:28;;;;;;;14.88;5.65;;;;;;;9.36;100.00;101264.84;5056144;28;20055;-74
2022/09/23 05:04:02;;;;;;;18.10;6.38;;;;;;;9.33;100.00;101269.16;5065738;28;20052;-73
2022/09/23 05:06:30;;;;;;;16.23;6.50;;;;;;;9.31;100.00;101262.41;5065383;28;20052;-74
2022/09/23 05:08:57;;;;;;;17.63;6.78;;;;;;;9.31;100.00;101263.22;5060654;28;20102;-73
2022/09/23 05:11:25;;;;;;;15.05;6.22;;;;;;;9.31;100.00;101263.22;5050111;28;20045;-72
2022/09/23 05:13:53;;;;;;;20.40;6.70;;;;;;;9.23;100.00;101260.75;5058539;28;20060;-73
2022/09/23 05:16:22;;;;;;;13.93;6.45;;;;;;;9.19;100.00;101271.75;5052432;28;20099;-73
2022/09/23 05:18:50;;;;;;;12.55;6.70;;;;;;;9.13;100.00;101267.72;5061121;28;20075;-71
2022/09/23 05:21:19;;;;;;;13.90;6.55;;;;;;;9.13;100.00;101267.72;5059237;28;20067;-74
2022/09/23 05:23:53;;;;;;;14.63;6.80;;;;;;;9.15;100.00;101272.88;5066743;28;20485;-75
2022/09/23 05:26:24;;;;;;;13.52;6.30;;;;;;;9.19;100.00;101271.75;5063033;28;20558;-73
2022/09/23 05:28:51;;;;;;;17.98;8.02;;;;;;;9.20;100.00;101278.84;5062551;28;20145;-71
2022/09/23 05:31:20;;;;;;;17.63;7.57;;;;;;;9.17;100.00;101271.31;5062201;28;20429;-73
2022/09/23 05:33:50;;;;;;;18.65;7.28;;;;;;;9.15;100.00;101275.63;5060489;28;20135;-74
2022/09/23 05:36:19;;;;;;;14.30;6.65;;;;;;;9.17;100.00;101276.03;5052918;28;20044;-73
2022/09/23 05:38:47;;;;;;;15.45;7.15;;;;;;;9.14;100.00;101271.25;5064923;28;20041;-74
2022/09/23 05:41:15;;;;;;;16.73;7.38;;;;;;;9.21;100.00;101283.19;5055713;28;20048;-74
2022/09/23 05:43:41;;;;;;;13.93;7.38;;;;;;;9.26;100.00;101273.78;5065150;28;20174;-74
2022/09/23 05:46:22;;;;;;;16.80;7.13;;;;;;;9.25;100.00;101284.03;5067715;28;20520;-74
2022/09/23 05:48:49;;;;;;;16.13;6.97;;;;;;;9.25;100.00;101275.75;5063247;28;20048;-74
2022/09/23 05:51:21;;;;;;;15.20;6.20;;;;;;;9.26;100.00;101273.78;5057572;28;20433;-75
2022/09/23 05:53:50;;;;;;;18.23;8.25;;;;;;;9.30;100.00;101280.16;5063556;28;20073;-73
2022/09/23 05:56:18;;;;;;;15.27;7.18;;;;;;;9.33;100.00;101282.97;5064983;28;20048;-74
2022/09/23 05:58:47;;;;;;;13.18;6.55;;;;;;;9.34;100.00;101281.00;5053021;28;20132;-73
2022/09/23 06:01:20;;;;;;;19.42;6.68;;;;;;;9.36;100.00;101281.41;5059409;28;20505;-73
2022/09/23 06:03:48;;;;;;;15.57;6.63;;;;;;;9.39;100.00;101280.69;5061964;28;20049;-72
2022/09/23 06:06:19;;;;;;;21.17;7.18;;;;;;;9.42;100.00;101271.66;5063418;28;20049;-73
2022/09/23 06:08:46;;;;;;;13.57;6.50;;;;;;;9.44;100.00;101267.31;5067805;28;20048;-74
2022/09/23 06:11:13;;;;;;;13.70;6.70;;;;;;;9.47;100.00;101274.88;5067689;28;20059;-73
2022/09/23 06:13:40;;;;;;;20.40;6.65;;;;;;;9.48;100.00;101273.69;5068667;28;20048;-73
2022/09/23 06:16:12;;;;;;;14.77;6.38;;;;;;;9.52;100.00;101280.03;5067748;28;20059;-76
2022/09/23 06:18:40;;;;;;;17.73;7.65;;;;;;;9.56;100.00;101275.38;5068310;28;20044;-76
2022/09/23 06:21:10;;;;;;;13.30;6.72;;;;;;;9.53;100.00;101269.78;5067530;28;20045;-75
2022/09/23 06:23:37;;;;;;;22.55;9.30;;;;;;;9.57;100.00;101265.91;5068413;28;20052;-74
2022/09/23 06:26:09;;;;;;;20.42;7.93;;;;;;;9.64;100.00;101270.72;5068240;28;20131;-76
2022/09/23 06:28:39;;;;;;;25.10;8.75;;;;;;;9.69;100.00;101271.16;5067499;28;20044;-74
2022/09/23 06:31:12;;;;;;;20.60;8.75;;;;;;;9.75;100.00;101272.41;5066018;28;20049;-73
2022/09/23 06:33:40;;;;;;;18.92;8.98;;;;;;;9.81;100.00;101281.97;5058097;28;20057;-73
2022/09/23 06:36:08;;;;;;;17.38;9.20;;;;;;;9.83;100.00;101268.53;5058601;28;20052;-71
2022/09/23 06:38:38;;;;;;;24.27;11.00;;;;;;;9.98;100.00;101280.56;5064997;28;20044;-74
2022/09/23 06:41:04;;;;;;;19.95;9.10;;;;;;;10.07;100.00;101270.81;5051816;28;20060;-73
2022/09/23 06:43:30;;;;;;;18.88;9.93;;;;;;;10.17;100.00;101275.63;5062575;28;20403;-76
2022/09/23 06:45:59;;;;;;;22.50;9.57;;;;;;;10.28;100.00;101278.50;5065997;28;20059;-72
2022/09/23 06:48:27;;;;;;;19.92;9.90;;;;;;;10.39;100.00;101271.91;5062439;28;20553;-71
2022/09/23 06:50:58;;;;;;;25.20;12.10;;;;;;;10.54;100.00;101278.34;5058652;28;20056;-70
2022/09/23 06:53:24;;;;;;;20.65;10.88;;;;;;;10.68;100.00;101269.34;5064725;28;20063;-69
2022/09/23 06:56:02;;;;;;;23.33;10.60;;;;;;;10.83;100.00;101266.28;5064502;28;20678;-72
2022/09/23 06:58:30;;;;;;;20.35;10.65;;;;;;;10.93;100.00;101262.00;5066271;28;20049;-70
2022/09/23 07:01:03;;;;;;;26.05;10.93;;;;;;;11.14;100.00;101271.22;5057028;28;20045;-72
2022/09/23 07:03:30;;;;;;;23.08;11.27;;;;;;;11.30;100.00;101268.16;5066232;28;20051;-73
2022/09/23 07:05:58;;;;;;;23.13;10.70;;;;;;;11.46;100.00;101272.16;5059873;28;20044;-70
2022/09/23 07:08:26;;;;;;;22.85;9.77;;;;;;;11.65;100.00;101265.53;5067639;28;20127;-70
2022/09/23 07:10:54;;;;;;;21.40;9.52;;;;;;;11.83;100.00;101269.16;5065944;28;20045;-73
2022/09/23 07:13:22;;;;;;;20.45;10.70;;;;;;;11.98;100.00;101276.34;5057798;28;20060;-70
2022/09/23 07:15:50;;;;;;;22.38;10.32;;;;;;;12.15;100.00;101281.88;5066706;28;20064;-71
2022/09/23 07:18:18;;;;;;;22.95;9.55;;;;;;;12.32;100.00;101278.34;5058407;28;20048;-70
2022/09/23 07:20:48;;;;;;;18.95;9.30;;;;;;;12.44;100.00;101268.84;5055057;28;20089;-70
2022/09/23 07:23:16;;;;;;;21.05;9.85;;;;;;;12.65;100.00;101282.69;5056594;28;20075;-70
2022/09/23 07:25:45;;;;;;;19.67;9.65;;;;;;;12.80;100.00;101278.72;5054824;28;20052;-71
2022/09/23 07:28:12;;;;;;;23.50;9.70;;;;;;;12.94;100.00;101273.97;5069459;28;20048;-71
2022/09/23 07:30:39;;;;;;;19.67;9.55;;;;;;;13.09;100.00;101269.16;5060215;28;20068;-71
2022/09/23 07:33:19;;;;;;;20.75;9.35;;;;;;;13.21;100.00;101271.53;5066755;28;20136;-71
2022/09/23 07:35:57;;;;;;;19.35;10.20;;;;;;;13.39;100.00;101271.47;5063598;28;20733;-70
2022/09/23 07:38:28;;;;;;;20.38;10.18;;;;;;;13.54;100.00;101276.56;5071665;28;20051;-71
2022/09/23 07:41:06;;;;;;;17.27;8.27;;;;;;;13.69;100.00;101280.88;5062257;28;20060;-70
2022/09/23 07:43:33;;;;;;;15.38;7.00;;;;;;;13.85;100.00;101277.59;5069988;28;20075;-71
2022/09/23 07:46:03;;;;;;;14.68;6.20;;;;;;;13.92;100.00;101289.50;5063195;28;20044;-71
2022/09/23 07:48:29;;;;;;;13.95;6.20;;;;;;;14.11;100.00;101283.38;5055548;28;20052;-71
2022/09/23 07:51:05;;;;;;;19.58;7.57;;;;;;;14.22;100.00;101286.13;5056582;28;20040;-71
2022/09/23 07:53:32;;;;;;;19.63;7.65;;;;;;;14.34;100.00;101289.22;5057816;28;20045;-71
2022/09/23 07:55:58;;;;;;;19.17;8.48;;;;;;;14.54;100.00;101289.47;5062367;28;20091;-70
2022/09/23 07:58:25;;;;;;;16.65;7.03;;;;;;;14.69;100.00;101285.38;5068896;28;20036;-70
2022/09/23 08:00:52;;;;;;;11.50;5.85;;;;;;;14.84;100.00;101293.19;5065011;28;20139;-72
2022/09/23 08:03:20;;;;;;;12.20;5.55;;;;;;;14.94;100.00;101291.50;5061261;28;20040;-70
2022/09/23 08:05:47;;;;;;;14.57;5.47;;;;;;;14.99;100.00;101283.47;5058469;28;20409;-71
2022/09/23 08:08:13;;;;;;;13.20;5.32;;;;;;;15.14;100.00;101287.72;5067727;28;20583;-68
2022/09/23 08:10:40;;;;;;;17.77;5.63;;;;;;;15.28;100.00;101287.56;5062676;28;20049;-70
2022/09/23 08:13:06;;;;;;;15.88;6.05;;;;;;;15.37;100.00;101292.66;5068031;28;20162;-72
2022/09/23 08:15:33;;;;;;;11.50;5.18;;;;;;;15.41;100.00;101297.00;5061757;28;20055;-71
2022/09/23 08:18:00;;;;;;;19.55;5.68;;;;;;;15.58;100.00;101295.19;5058127;28;20440;-71
2022/09/23 08:20:46;;;;;;;13.50;4.95;;;;;;;15.68;100.00;101287.88;5063816;28;20052;-70
2022/09/23 08:23:15;;;;;;;12.98;4.85;;;;;;;15.70;100.00;101286.28;5066771;28;20051;-71
2022/09/23 08:25:44;;;;;;;16.02;5.35;;;;;;;15.84;100.00;101288.09;5064948;28;20056;-71
2022/09/23 08:28:15;;;;;;;15.75;4.80;;;;;;;15.84;100.00;101290.88;5058821;28;20131;-71
2022/09/23 08:30:47;;;;;;;14.68;5.13;;;;;;;15.93;100.00;101283.56;5058563;28;20052;-71
2022/09/23 08:33:14;;;;;;;13.77;5.45;;;;;;;15.98;100.00;101290.69;5064122;28;20041;-71
2022/09/23 08:35:48;;;;;;;13.45;5.93;;;;;;;16.03;100.00;101285.41;5064817;28;20048;-72
2022/09/23 08:38:14;;;;;;;19.17;7.28;;;;;;;16.03;100.00;101273.47;5057378;28;20102;-70
2022/09/23 08:40:43;;;;;;;13.27;5.32;;;;;;;16.10;100.00;101278.94;5042150;28;20053;-71
2022/09/23 08:43:20;;;;;;;12.82;5.68;;;;;;;16.13;100.00;101273.31;5048652;28;20049;-71
2022/09/23 08:45:49;;;;;;;16.92;5.50;;;;;;;16.23;100.00;101274.38;5051921;28;20040;-71
2022/09/23 08:48:28;;;;;;;18.50;5.90;;;;;;;16.31;100.00;101271.03;5042074;28;20047;-71
2022/09/23 08:51:03;;;;;;;15.88;6.22;;;;;;;16.42;100.00;101282.03;5047785;28;20045;-71
2022/09/23 08:53:34;;;;;;;11.30;5.05;;;;;;;16.43;100.00;101275.28;5040718;28;20064;-72
2022/09/23 08:56:10;;;;;;;14.55;5.90;;;;;;;16.58;99.88;101274.63;5040104;28;20052;-74
2022/09/23 08:59:01;;;;;;;15.25;6.03;;;;;;;16.73;100.00;101277.94;5044666;28;20794;-71
2022/09/23 09:01:34;;;;;;;11.73;5.15;;;;;;;16.88;100.00;101276.50;5048242;28;20052;-71
2022/09/23 09:04:16;;;;;;;14.70;5.45;;;;;;;16.95;97.52;101276.34;5046801;28;20682;-71
2022/09/23 09:06:45;;;;;;;12.38;5.28;;;;;;;17.01;96.24;101274.66;5047311;28;20055;-70
2022/09/23 09:09:22;;;;;;;12.43;5.25;;;;;;;17.10;97.68;101258.88;5045183;28;20122;-70
2022/09/23 09:11:53;;;;;;;14.00;4.25;;;;;;;17.08;90.29;101275.28;5047246;28;20052;-70
2022/09/23 09:14:26;;;;;;;12.43;4.45;;;;;;;17.12;86.72;101270.44;5047992;28;20052;-75
2022/09/23 09:16:55;;;;;;;11.05;3.90;;;;;;;17.09;86.48;101262.91;5045184;28;20048;-72
2022/09/23 09:19:35;;;;;;;7.45;2.78;;;;;;;17.11;84.67;101266.06;5045038;28;20125;-70
2022/09/23 09:22:08;;;;;;;11.80;3.13;;;;;;;17.20;84.18;101266.28;5041577;28;20809;-71
2022/09/23 09:24:34;;;;;;;11.52;3.08;;;;;;;17.16;82.85;101264.78;5049440;28;20123;-73
2022/09/23 09:27:10;;;;;;;8.02;2.85;;;;;;;17.31;83.59;101261.25;5047791;28;20048;-71
2022/09/23 09:29:41;;;;;;;9.35;3.10;;;;;;;17.41;84.13;101265.84;5050176;28;20052;-70
2022/09/23 09:32:21;;;;;;;7.40;3.17;;;;;;;17.57;85.81;101265.97;5048863;28;20094;-70
2022/09/23 09:34:58;;;;;;;8.82;3.50;;;;;;;17.53;80.48;101278.44;5046175;28;20052;-70
2022/09/23 09:37:38;;;;;;;4.93;2.47;;;;;;;17.61;81.20;101257.47;5049749;28;20908;-72
2022/09/23 09:40:07;;;;;;;5.10;2.03;;;;;;;17.65;74.53;101272.97;5047821;28;20056;-72
2022/09/23 09:42:43;;;;;;;7.75;3.08;;;;;;;17.78;74.96;101256.31;5046944;28;20218;-72
2022/09/23 09:45:25;;;;;;;7.65;1.83;;;;;;;17.84;68.87;101266.56;5042382;28;20048;-71
2022/09/23 09:48:16;;;;;;;5.40;2.05;;;;;;;17.90;68.68;101252.84;5046959;28;20075;-72
2022/09/23 09:50:50;;;;;;;6.38;2.50;;;;;;;18.15;70.64;101257.88;5048534;28;20052;-70
2022/09/23 09:53:29;;;;;;;5.28;2.10;;;;;;;18.15;67.47;101246.69;5041017;28;20099;-71
2022/09/23 09:55:59;;;;;;;5.55;2.13;;;;;;;18.23;65.93;101251.69;5049166;28;20059;-73
2022/09/23 09:59:16;;;;;;;0.50;0.50;;;;;;;18.07;62.38;101257.25;5041440;28;20072;-72
2022/09/23 10:01:45;;;;;;;9.15;2.58;;;;;;;18.29;65.52;101246.34;4962037;28;20061;-73
2022/09/23 10:04:32;;;;;;;7.07;2.58;;;;;;;18.27;62.32;101251.56;4954298;28;20061;-70
2022/09/23 10:07:12;;;;;;;3.90;1.42;;;;;;;18.22;61.89;101252.09;4965155;28;20046;-70
2022/09/23 10:09:47;;;;;;;7.15;2.63;;;;;;;18.44;64.47;101248.38;4967134;28;20526;-70
2022/09/23 10:12:17;;;;;;;5.95;2.40;;;;;;;18.42;62.75;101239.63;4966285;28;20061;-72
2022/09/23 10:14:49;;;;;;;6.82;2.58;;;;;;;18.59;64.36;101241.19;4962988;28;20057;-70
2022/09/23 10:17:32;;;;;;;7.90;2.80;;;;;;;18.49;62.63;101241.47;4965097;28;20054;-71
2022/09/23 10:20:05;;;;;;;9.38;2.88;;;;;;;18.53;60.98;101244.97;4965441;28;20057;-70
2022/09/23 10:22:38;;;;;;;4.38;2.30;;;;;;;18.59;60.66;101243.97;4949766;28;20658;-71
2022/09/23 10:25:16;;;;;;;13.43;2.58;;;;;;;18.65;62.28;101236.63;4967293;28;20054;-73
2022/09/23 10:27:44;;;;;;;2.95;1.20;;;;;;;18.55;58.11;101240.47;4946730;28;20262;-71
2022/09/23 10:30:25;;;;;;;3.67;1.65;;;;;;;18.58;57.57;101241.63;4964036;28;20062;-72
2022/09/23 10:32:53;;;;;;;7.68;2.28;;;;;;;18.69;58.88;101240.13;5012489;28;20059;-71
2022/09/23 10:35:23;;;;;;;9.45;2.38;;;;;;;18.90;61.34;101235.97;5046367;28;20053;-70
2022/09/23 10:37:54;;;;;;;4.53;2.15;;;;;;;19.01;59.08;101230.84;5041731;28;20056;-71
2022/09/23 10:46:39;;;;;;;12.20;2.60;;;;;;;19.35;57.97;101245.16;5047845;28;20052;-72
2022/09/23 10:49:44;;;;;;;3.25;0.93;;;;;;;19.19;55.22;101237.56;5032216;28;20060;-71
2022/09/23 10:52:17;;;;;;;5.22;2.30;;;;;;;19.30;57.16;101235.25;5043648;28;20889;-71
2022/09/23 10:55:00;;;;;;;10.25;2.25;;;;;;;19.23;56.89;101238.22;5040863;28;20053;-70
2022/09/23 10:57:44;;;;;;;6.47;1.85;;;;;;;19.22;55.55;101236.66;5043454;28;20060;-70
2022/09/23 11:00:41;;;;;;;5.45;2.00;;;;;;;19.36;56.45;101224.25;5043173;28;20049;-72
2022/09/23 11:03:16;;;;;;;6.93;2.42;;;;;;;19.54;57.02;101213.31;5045944;28;20060;-72
2022/09/23 11:06:24;;;;;;;8.30;2.15;;;;;;;19.52;56.16;101216.56;5045915;28;20946;-76
2022/09/23 11:09:15;;;;;;;7.65;2.20;;;;;;;19.76;52.92;101212.22;5040572;28;20063;-75
2022/09/23 11:11:51;;;;;;;7.88;2.42;;;;;;;19.90;52.75;101206.16;5037071;28;20059;-72
2022/09/23 11:14:42;;;;;;;1.75;1.08;;;;;;;19.77;52.13;101198.94;5045656;28;20052;-72
2022/09/23 11:17:33;;;;;;;3.38;1.42;;;;;;;19.95;52.27;101199.19;5041005;28;20056;-72
2022/09/23 11:20:25;;;;;;;3.95;1.85;;;;;;;20.01;53.90;101198.19;5044072;28;20059;-71
2022/09/23 11:23:31;;;;;;;10.35;3.92;;;;;;;20.27;55.66;101194.16;5044406;28;20093;-71
2022/09/23 11:26:19;;;;;;;2.38;1.17;;;;;;;20.07;50.63;101187.97;5045642;28;20045;-73
2022/09/23 11:28:54;;;;;;;4.38;1.27;;;;;;;20.12;50.36;101181.78;5044722;28;20052;-70
2022/09/23 11:31:46;;;;;;;6.95;2.47;;;;;;;20.32;49.92;101182.31;5041833;28;20056;-72
2022/09/23 11:34:32;;;;;;;7.25;2.40;;;;;;;20.55;50.40;101191.63;5039136;28;20060;-76
2022/09/23 11:37:13;;;;;;;3.55;1.33;;;;;;;20.76;48.33;101179.63;5045751;28;20056;-74
2022/09/23 11:39:56;;;;;;;4.60;1.80;;;;;;;20.99;48.34;101176.41;5046967;28;20051;-74
2022/09/23 11:42:34;;;;;;;7.22;2.72;;;;;;;21.31;48.23;101171.16;5039125;28;20382;-72
2022/09/23 11:45:27;;;;;;;4.28;2.20;;;;;;;21.65;45.82;101167.41;5045182;28;20049;-71
2022/09/23 11:48:04;;;;;;;5.47;2.08;;;;;;;21.91;46.70;101169.56;5044420;28;20775;-75
2022/09/23 11:50:57;;;;;;;5.72;1.50;;;;;;;21.53;46.66;101179.56;5045908;28;20814;-71